createdAt,value
2023-04-21T00:00:41.726Z,29.4
2023-04-21T00:01:50.078Z,29.4
2023-04-21T00:02:58.507Z,29.4
2023-04-21T00:04:07.017Z,30.299999
2023-04-21T00:05:15.351Z,30.299999
2023-04-21T00:06:23.641Z,30.299999
2023-04-21T00:07:32.186Z,30.5
2023-04-21T00:08:40.554Z,30.5
2023-04-21T00:09:48.856Z,30.5
2023-04-21T00:10:57.425Z,31
2023-04-21T00:12:05.776Z,31
2023-04-21T00:13:14.164Z,31
2023-04-21T00:14:22.653Z,30.1
2023-04-21T00:15:30.960Z,30.1
2023-04-21T00:16:39.379Z,30.1
2023-04-21T00:17:47.872Z,29.6
2023-04-21T00:18:56.202Z,29.6
2023-04-21T00:20:04.531Z,29.6
2023-04-21T00:21:13.066Z,28.799999
2023-04-21T00:22:21.409Z,28.799999
2023-04-21T00:23:29.775Z,28.799999
2023-04-21T00:24:38.303Z,29.299999
2023-04-21T00:25:46.642Z,29.299999
2023-04-21T00:26:55.004Z,29.299999
2023-04-21T00:28:03.535Z,28.4
2023-04-21T00:29:11.869Z,28.4
2023-04-21T00:30:20.241Z,28.4
2023-04-21T00:31:28.791Z,29.4
2023-04-21T00:32:37.168Z,29.4
2023-04-21T00:33:45.477Z,29.4
2023-04-21T00:34:54.014Z,29.299999
2023-04-21T00:36:02.355Z,29.299999
2023-04-21T00:37:10.718Z,29.299999
2023-04-21T00:38:19.247Z,30
2023-04-21T00:39:28.111Z,30
2023-04-21T00:40:36.445Z,30
2023-04-21T00:41:44.994Z,28.1
2023-04-21T00:42:53.370Z,28.1
2023-04-21T00:44:01.675Z,28.1
2023-04-21T00:45:10.219Z,27.200001
2023-04-21T00:46:18.571Z,27.200001
2023-04-21T00:47:26.961Z,27.200001
2023-04-21T00:48:35.494Z,27
2023-04-21T00:49:43.832Z,27
2023-04-21T00:50:52.161Z,27
2023-04-21T00:52:00.756Z,26.299999
2023-04-21T00:53:09.088Z,26.299999
2023-04-21T00:54:17.444Z,26.299999
2023-04-21T00:55:25.974Z,28.5
2023-04-21T00:56:34.308Z,28.5
2023-04-21T00:57:42.656Z,28.5
2023-04-21T00:58:51.226Z,27
2023-04-21T00:59:59.518Z,27
2023-04-21T01:01:07.906Z,27
2023-04-21T01:02:16.496Z,27.299999
2023-04-21T01:03:24.862Z,27.299999
2023-04-21T01:04:33.105Z,27.299999
2023-04-21T01:05:41.646Z,26.9
2023-04-21T01:06:49.979Z,26.9
2023-04-21T01:07:58.318Z,26.9
2023-04-21T01:09:06.855Z,27.5
2023-04-21T01:10:15.203Z,27.5
2023-04-21T01:11:23.532Z,27.5
2023-04-21T01:12:32.078Z,27.5
2023-04-21T01:13:40.415Z,27.5
2023-04-21T01:14:48.756Z,27.5
2023-04-21T01:15:57.281Z,27.1
2023-04-21T01:17:05.614Z,27.1
2023-04-21T01:18:13.976Z,27.1
2023-04-21T01:19:22.498Z,26.6
2023-04-21T01:20:30.822Z,26.6
2023-04-21T01:21:39.168Z,26.6
2023-04-21T01:22:47.710Z,27.1
2023-04-21T01:23:56.044Z,27.1
2023-04-21T01:25:04.377Z,27.1
2023-04-21T01:26:12.949Z,25.299999
2023-04-21T01:27:21.324Z,25.299999
2023-04-21T01:28:29.650Z,25.299999
2023-04-21T01:29:38.191Z,26.299999
2023-04-21T01:30:46.546Z,26.299999
2023-04-21T01:31:54.899Z,26.299999
2023-04-21T01:33:03.414Z,27.200001
2023-04-21T01:34:11.739Z,27.200001
2023-04-21T01:35:20.089Z,27.200001
2023-04-21T01:36:28.633Z,25.1
2023-04-21T01:37:37.011Z,25.1
2023-04-21T01:38:45.341Z,25.1
2023-04-21T01:39:53.878Z,25.9
2023-04-21T01:41:02.221Z,25.9
2023-04-21T01:42:10.572Z,25.9
2023-04-21T01:43:19.115Z,25.6
2023-04-21T01:44:27.459Z,25.6
2023-04-21T01:45:35.807Z,25.6
2023-04-21T01:46:44.376Z,27.299999
2023-04-21T01:47:52.691Z,27.299999
2023-04-21T01:49:01.010Z,27.299999
2023-04-21T01:50:09.565Z,30.299999
2023-04-21T01:51:17.921Z,30.299999
2023-04-21T01:52:26.283Z,30.299999
2023-04-21T01:53:34.813Z,29.4
2023-04-21T01:54:43.160Z,29.4
2023-04-21T01:55:51.517Z,29.4
2023-04-21T01:57:00.174Z,26.799999
2023-04-21T01:58:08.427Z,26.799999
2023-04-21T01:59:16.807Z,26.799999
2023-04-21T02:00:25.299Z,27.700001
2023-04-21T02:01:33.679Z,27.700001
2023-04-21T02:02:42.119Z,27.700001
2023-04-21T02:03:50.796Z,27.4
2023-04-21T02:04:58.890Z,27.4
2023-04-21T02:06:07.242Z,27.4
2023-04-21T02:07:15.797Z,25.9
2023-04-21T02:08:24.131Z,25.9
2023-04-21T02:09:32.457Z,25.9
2023-04-21T02:10:41.011Z,26.5
2023-04-21T02:11:49.341Z,26.5
2023-04-21T02:12:57.692Z,26.5
2023-04-21T02:14:06.211Z,27.700001
2023-04-21T02:15:14.573Z,27.700001
2023-04-21T02:16:22.954Z,27.700001
2023-04-21T02:17:31.472Z,26.1
2023-04-21T02:18:39.826Z,26.1
2023-04-21T02:19:48.114Z,26.1
2023-04-21T02:20:56.689Z,24.4
2023-04-21T02:22:05.024Z,24.4
2023-04-21T02:23:13.342Z,24.4
2023-04-21T02:24:21.876Z,25.5
2023-04-21T02:25:30.218Z,25.5
2023-04-21T02:26:38.541Z,25.5
2023-04-21T02:27:47.105Z,27.200001
2023-04-21T02:28:55.424Z,27.200001
2023-04-21T02:30:03.772Z,27.200001
2023-04-21T02:31:12.338Z,27.799999
2023-04-21T02:32:25.777Z,27.799999
2023-04-21T02:33:28.979Z,27.799999
2023-04-21T02:34:37.510Z,25.4
2023-04-21T02:35:45.843Z,25.4
2023-04-21T02:36:54.157Z,25.4
2023-04-21T02:38:02.690Z,24.200001
2023-04-21T02:39:11.026Z,24.200001
2023-04-21T02:40:19.387Z,24.200001
2023-04-21T02:41:27.924Z,22.4
2023-04-21T02:42:36.267Z,22.4
2023-04-21T02:43:44.602Z,22.4
2023-04-21T02:44:53.144Z,22
2023-04-21T02:46:01.515Z,22
2023-04-21T02:47:09.854Z,22
2023-04-21T02:48:18.418Z,26.4
2023-04-21T02:49:26.767Z,26.4
2023-04-21T02:50:35.118Z,26.4
2023-04-21T02:51:43.629Z,24.799999
2023-04-21T02:52:51.967Z,24.799999
2023-04-21T02:54:00.300Z,24.799999
2023-04-21T02:55:08.842Z,28
2023-04-21T02:56:17.167Z,28
2023-04-21T02:57:25.503Z,28
2023-04-21T02:58:34.059Z,24.9
2023-04-21T02:59:42.395Z,24.9
2023-04-21T03:00:50.774Z,24.9
2023-04-21T03:01:59.283Z,25
2023-04-21T03:03:07.889Z,25
2023-04-21T03:04:16.138Z,25
2023-04-21T03:05:24.569Z,25.9
2023-04-21T03:06:32.908Z,25.9
2023-04-21T03:07:41.196Z,25.9
2023-04-21T03:08:49.757Z,26.6
2023-04-21T03:09:58.087Z,26.6
2023-04-21T03:11:06.446Z,26.6
2023-04-21T03:12:15.019Z,25.5
2023-04-21T03:13:23.352Z,25.5
2023-04-21T03:14:31.696Z,25.5
2023-04-21T03:15:40.246Z,25.4
2023-04-21T03:16:48.649Z,25.4
2023-04-21T03:17:57.035Z,25.4
2023-04-21T03:19:05.496Z,26
2023-04-21T03:20:13.818Z,26
2023-04-21T03:21:22.188Z,26
2023-04-21T03:22:30.743Z,25.200001
2023-04-21T03:23:39.074Z,25.200001
2023-04-21T03:24:47.416Z,25.200001
2023-04-21T03:25:55.951Z,25
2023-04-21T03:27:04.308Z,25
2023-04-21T03:28:12.642Z,25
2023-04-21T03:29:21.522Z,24.799999
2023-04-21T03:30:29.557Z,24.799999
2023-04-21T03:31:37.899Z,24.799999
2023-04-21T03:32:46.446Z,25.299999
2023-04-21T03:33:54.758Z,25.299999
2023-04-21T03:35:03.112Z,25.299999
2023-04-21T03:36:11.666Z,23.4
2023-04-21T03:37:19.996Z,23.4
2023-04-21T03:38:28.345Z,23.4
2023-04-21T03:39:36.874Z,23.299999
2023-04-21T03:40:45.197Z,23.299999
2023-04-21T03:41:53.549Z,23.299999
2023-04-21T03:43:02.092Z,20.799999
2023-04-21T03:44:10.447Z,20.799999
2023-04-21T03:45:18.785Z,20.799999
2023-04-21T03:46:27.428Z,20.799999
2023-04-21T03:47:35.712Z,20.799999
2023-04-21T03:48:44.011Z,20.799999
2023-04-21T03:49:52.563Z,25.1
2023-04-21T03:51:00.903Z,25.1
2023-04-21T03:52:09.251Z,25.1
2023-04-21T03:53:17.793Z,23.9
2023-04-21T03:54:26.226Z,23.9
2023-04-21T03:55:34.635Z,23.9
2023-04-21T03:56:43.191Z,25.4
2023-04-21T03:57:51.533Z,25.4
2023-04-21T03:58:59.884Z,25.4
2023-04-21T04:00:08.411Z,24.700001
2023-04-21T04:01:16.745Z,24.700001
2023-04-21T04:02:25.180Z,24.700001
2023-04-21T04:03:33.667Z,28.5
2023-04-21T04:04:42.137Z,28.5
2023-04-21T04:05:50.337Z,28.5
2023-04-21T04:06:58.872Z,26.6
2023-04-21T04:08:07.221Z,26.6
2023-04-21T04:09:15.734Z,26.6
2023-04-21T04:10:24.847Z,25
2023-04-21T04:11:33.291Z,25
2023-04-21T04:12:41.625Z,25
2023-04-21T04:13:50.199Z,25.4
2023-04-21T04:14:58.505Z,25.4
2023-04-21T04:16:06.929Z,25.4
2023-04-21T04:17:15.409Z,29.200001
2023-04-21T04:18:23.961Z,29.200001
2023-04-21T04:19:32.293Z,29.200001
2023-04-21T04:20:40.834Z,28.700001
2023-04-21T04:21:49.347Z,28.700001
2023-04-21T04:22:57.506Z,28.700001
2023-04-21T04:24:06.080Z,28.4
2023-04-21T04:25:14.433Z,28.4
2023-04-21T04:26:22.828Z,28.4
2023-04-21T04:27:31.346Z,29.799999
2023-04-21T04:28:39.703Z,29.799999
2023-04-21T04:29:48.060Z,29.799999
2023-04-21T04:30:56.739Z,28.5
2023-04-21T04:32:05.016Z,28.5
2023-04-21T04:33:21.677Z,28.5
2023-04-21T04:34:30.208Z,29.799999
2023-04-21T04:35:38.561Z,29.799999
2023-04-21T04:36:46.883Z,29.799999
2023-04-21T04:37:55.418Z,28.700001
2023-04-21T04:39:03.783Z,28.700001
2023-04-21T04:40:12.086Z,28.700001
2023-04-21T04:41:20.627Z,27.9
2023-04-21T04:42:29.000Z,27.9
2023-04-21T04:43:37.313Z,27.9
2023-04-21T04:44:45.878Z,28.6
2023-04-21T04:45:54.191Z,28.6
2023-04-21T04:47:02.619Z,28.6
2023-04-21T04:48:11.090Z,27.4
2023-04-21T04:49:19.430Z,27.4
2023-04-21T04:50:27.760Z,27.4
2023-04-21T04:51:36.306Z,28.5
2023-04-21T04:52:44.638Z,28.5
2023-04-21T04:53:52.977Z,28.5
2023-04-21T04:55:01.541Z,28.200001
2023-04-21T04:56:09.886Z,28.200001
2023-04-21T04:57:18.230Z,28.200001
2023-04-21T04:58:26.817Z,27.6
2023-04-21T04:59:35.081Z,27.6
2023-04-21T05:00:43.448Z,27.6
2023-04-21T05:01:52.014Z,28.299999
2023-04-21T05:03:00.414Z,28.299999
2023-04-21T05:04:08.816Z,28.299999
2023-04-21T05:05:17.240Z,26.799999
2023-04-21T05:06:25.550Z,26.799999
2023-04-21T05:07:33.898Z,26.799999
2023-04-21T05:08:42.473Z,27.700001
2023-04-21T05:09:50.819Z,27.700001
2023-04-21T05:10:59.176Z,27.700001
2023-04-21T05:12:07.742Z,28.6
2023-04-21T05:13:16.099Z,28.6
2023-04-21T05:14:24.458Z,28.6
2023-04-21T05:15:32.969Z,26.9
2023-04-21T05:16:41.389Z,26.9
2023-04-21T05:17:49.739Z,26.9
2023-04-21T05:18:58.229Z,27.200001
2023-04-21T05:20:06.567Z,27.200001
2023-04-21T05:21:14.886Z,27.200001
2023-04-21T05:22:23.424Z,26.1
2023-04-21T05:23:31.764Z,26.1
2023-04-21T05:24:40.109Z,26.1
2023-04-21T05:25:48.649Z,26.5
2023-04-21T05:26:56.981Z,26.5
2023-04-21T05:28:05.324Z,26.5
2023-04-21T05:29:13.857Z,25.299999
2023-04-21T05:30:22.217Z,25.299999
2023-04-21T05:31:30.567Z,25.299999
2023-04-21T05:32:39.158Z,26.200001
2023-04-21T05:33:47.438Z,26.200001
2023-04-21T05:34:55.772Z,26.200001
2023-04-21T05:36:04.312Z,26.4
2023-04-21T05:37:12.646Z,26.4
2023-04-21T05:38:21.008Z,26.4
2023-04-21T05:39:29.545Z,25.700001
2023-04-21T05:40:37.892Z,25.700001
2023-04-21T05:41:46.251Z,25.700001
2023-04-21T05:42:54.821Z,23.9
2023-04-21T05:44:03.158Z,23.9
2023-04-21T05:45:11.497Z,23.9
2023-04-21T05:46:20.110Z,24.700001
2023-04-21T05:47:28.454Z,24.700001
2023-04-21T05:48:36.744Z,24.700001
2023-04-21T05:49:45.296Z,24.9
2023-04-21T05:50:53.620Z,24.9
2023-04-21T05:52:01.959Z,24.9
2023-04-21T05:53:10.522Z,24.9
2023-04-21T05:54:19.002Z,24.9
2023-04-21T05:55:27.215Z,24.9
2023-04-21T05:56:35.763Z,22.4
2023-04-21T05:57:44.104Z,22.4
2023-04-21T05:58:52.453Z,22.4
2023-04-21T06:00:00.994Z,22.799999
2023-04-21T06:01:09.342Z,22.799999
2023-04-21T06:02:17.781Z,22.799999
2023-04-21T06:03:26.372Z,21.9
2023-04-21T06:04:34.701Z,21.9
2023-04-21T06:05:43.011Z,21.9
2023-04-21T06:06:51.445Z,23
2023-04-21T06:07:59.806Z,23
2023-04-21T06:09:08.122Z,23
2023-04-21T06:10:16.688Z,21.9
2023-04-21T06:11:25.038Z,21.9
2023-04-21T06:12:33.402Z,21.9
2023-04-21T06:13:43.539Z,20.5
2023-04-21T06:14:50.266Z,20.5
2023-04-21T06:15:58.618Z,20.5
2023-04-21T06:17:07.173Z,20.200001
2023-04-21T06:18:15.554Z,20.200001
2023-04-21T06:19:23.895Z,20.200001
2023-04-21T06:20:32.432Z,19.6
2023-04-21T06:21:40.785Z,19.6
2023-04-21T06:22:49.133Z,19.6
2023-04-21T06:23:57.672Z,19.4
2023-04-21T06:25:05.989Z,19.4
2023-04-21T06:26:14.341Z,19.4
2023-04-21T06:27:22.903Z,19.799999
2023-04-21T06:28:31.226Z,19.799999
2023-04-21T06:29:39.579Z,19.799999
2023-04-21T06:30:48.114Z,18.6
2023-04-21T06:31:56.528Z,18.6
2023-04-21T06:33:04.861Z,18.6
2023-04-21T06:34:13.377Z,18
2023-04-21T06:35:21.703Z,18
2023-04-21T06:36:30.051Z,18
2023-04-21T06:37:38.616Z,17.4
2023-04-21T06:38:46.964Z,17.4
2023-04-21T06:39:55.313Z,17.4
2023-04-21T06:41:03.858Z,17.200001
2023-04-21T06:42:12.203Z,17.200001
2023-04-21T06:43:20.555Z,17.200001
2023-04-21T06:44:29.088Z,18.4
2023-04-21T06:45:37.414Z,18.4
2023-04-21T06:46:45.766Z,18.4
2023-04-21T06:47:54.481Z,17.200001
2023-04-21T06:49:02.634Z,17.200001
2023-04-21T06:50:10.982Z,17.200001
2023-04-21T06:51:19.526Z,17.200001
2023-04-21T06:52:27.835Z,17.200001
2023-04-21T06:53:36.194Z,17.200001
2023-04-21T06:54:44.716Z,17.4
2023-04-21T06:55:53.075Z,17.4
2023-04-21T06:57:01.394Z,17.4
2023-04-21T06:58:09.970Z,17.299999
2023-04-21T06:59:18.589Z,17.299999
2023-04-21T07:00:26.670Z,17.299999
2023-04-21T07:01:35.308Z,17.200001
2023-04-21T07:02:43.579Z,17.200001
2023-04-21T07:03:52.013Z,17.200001
2023-04-21T07:05:00.509Z,16.799999
2023-04-21T07:06:08.881Z,16.799999
2023-04-21T07:07:17.195Z,16.799999
2023-04-21T07:08:25.770Z,17.299999
2023-04-21T07:09:34.115Z,17.299999
2023-04-21T07:10:42.404Z,17.299999
2023-04-21T07:11:50.950Z,17.4
2023-04-21T07:12:59.285Z,17.4
2023-04-21T07:14:07.620Z,17.4
2023-04-21T07:15:16.137Z,16.5
2023-04-21T07:16:24.538Z,16.5
2023-04-21T07:17:32.844Z,16.5
2023-04-21T07:18:41.366Z,15.8
2023-04-21T07:19:49.699Z,15.8
2023-04-21T07:20:58.046Z,15.8
2023-04-21T07:22:06.612Z,16
2023-04-21T07:23:14.914Z,16
2023-04-21T07:24:23.259Z,16
2023-04-21T07:25:31.820Z,15.7
2023-04-21T07:26:40.170Z,15.7
2023-04-21T07:27:48.499Z,15.7
2023-04-21T07:28:57.046Z,16.4
2023-04-21T07:30:05.373Z,16.4
2023-04-21T07:31:13.735Z,16.4
2023-04-21T07:33:30.587Z,15.7
2023-04-21T07:34:38.890Z,15.7
2023-04-21T07:35:47.428Z,15
2023-04-21T07:36:55.779Z,15
2023-04-21T07:38:04.127Z,15
2023-04-21T07:39:12.641Z,14.3
2023-04-21T07:40:20.994Z,14.3
2023-04-21T07:41:29.361Z,14.3
2023-04-21T07:42:37.900Z,14
2023-04-21T07:43:46.243Z,14
2023-04-21T07:44:54.753Z,14
2023-04-21T07:46:03.146Z,14.6
2023-04-21T07:47:11.451Z,14.6
2023-04-21T07:48:19.793Z,14.6
2023-04-21T07:49:28.332Z,15.4
2023-04-21T07:50:36.674Z,15.4
2023-04-21T07:51:45.024Z,15.4
2023-04-21T07:52:53.558Z,16.299999
2023-04-21T07:54:01.937Z,16.299999
2023-04-21T07:55:10.249Z,16.299999
2023-04-21T07:56:18.837Z,14.8
2023-04-21T07:57:27.149Z,14.8
2023-04-21T07:58:35.477Z,14.8
2023-04-21T07:59:44.028Z,13.4
2023-04-21T08:00:52.392Z,13.4
2023-04-21T08:02:00.769Z,13.4
2023-04-21T08:03:09.363Z,12.9
2023-04-21T08:04:17.898Z,12.9
2023-04-21T08:05:28.901Z,12.9
2023-04-21T08:06:34.629Z,16.5
2023-04-21T08:07:42.834Z,16.5
2023-04-21T08:08:51.155Z,16.5
2023-04-21T08:09:59.710Z,16.5
2023-04-21T08:11:09.739Z,16.5
2023-04-21T08:12:16.367Z,16.5
2023-04-21T08:13:24.916Z,13.1
2023-04-21T08:14:33.238Z,13.1
2023-04-21T08:15:41.656Z,13.1
2023-04-21T08:16:50.236Z,12.2
2023-04-21T08:17:58.539Z,12.2
2023-04-21T08:19:06.845Z,12.2
2023-04-21T08:20:15.402Z,12.1
2023-04-21T08:21:23.734Z,12.1
2023-04-21T08:22:32.129Z,12.1
2023-04-21T08:23:40.644Z,12.8
2023-04-21T08:24:48.995Z,12.8
2023-04-21T08:25:57.325Z,12.8
2023-04-21T08:27:05.891Z,12.2
2023-04-21T08:28:14.208Z,12.2
2023-04-21T08:29:22.555Z,12.2
2023-04-21T08:30:31.172Z,12.5
2023-04-21T08:31:39.526Z,12.5
2023-04-21T08:32:47.868Z,12.5
2023-04-21T08:34:01.571Z,12.6
2023-04-21T08:35:04.760Z,12.6
2023-04-21T08:36:22.216Z,12.6
2023-04-21T08:37:21.660Z,10.6
2023-04-21T08:38:29.958Z,10.6
2023-04-21T08:39:38.275Z,10.6
2023-04-21T08:40:46.850Z,11
2023-04-21T08:41:55.185Z,11
2023-04-21T08:43:03.542Z,11
2023-04-21T08:44:12.082Z,10
2023-04-21T08:45:20.419Z,10
2023-04-21T08:46:28.943Z,10
2023-04-21T08:47:37.351Z,10.6
2023-04-21T08:48:45.677Z,10.6
2023-04-21T08:49:54.031Z,10.6
2023-04-21T08:51:02.590Z,9.6
2023-04-21T08:52:10.947Z,9.6
2023-04-21T08:53:19.336Z,9.6
2023-04-21T08:54:29.825Z,9.7
2023-04-21T08:55:36.201Z,9.7
2023-04-21T08:56:44.527Z,9.7
2023-04-21T08:57:53.097Z,9.4
2023-04-21T08:59:01.408Z,9.4
2023-04-21T09:00:09.756Z,9.4
2023-04-21T09:01:18.451Z,9.6
2023-04-21T09:02:26.708Z,9.6
2023-04-21T09:03:35.206Z,9.6
2023-04-21T09:04:43.700Z,9.5
2023-04-21T09:05:52.033Z,9.5
2023-04-21T09:07:00.231Z,9.5
2023-04-21T09:08:08.790Z,9
2023-04-21T09:09:17.420Z,9
2023-04-21T09:10:25.506Z,9
2023-04-21T09:11:34.059Z,8.5
2023-04-21T09:12:42.416Z,8.5
2023-04-21T09:13:50.896Z,8.5
2023-04-21T09:14:59.398Z,8.1
2023-04-21T09:16:08.634Z,8.1
2023-04-21T09:17:16.162Z,8.1
2023-04-21T09:18:24.666Z,7.8
2023-04-21T09:19:33.034Z,7.8
2023-04-21T09:20:41.357Z,7.8
2023-04-21T09:21:49.897Z,7.5
2023-04-21T09:22:58.245Z,7.5
2023-04-21T09:24:06.596Z,7.5
2023-04-21T09:25:15.125Z,7.2
2023-04-21T09:26:23.477Z,7.2
2023-04-21T09:27:31.818Z,7.2
2023-04-21T09:28:40.341Z,7.8
2023-04-21T09:29:48.717Z,7.8
2023-04-21T09:30:57.049Z,7.8
2023-04-21T09:32:05.587Z,7.1
2023-04-21T09:33:24.956Z,7.1
2023-04-21T09:34:22.264Z,7.1
2023-04-21T09:35:30.813Z,7.6
2023-04-21T09:36:39.137Z,7.6
2023-04-21T09:37:47.490Z,7.6
2023-04-21T09:39:12.784Z,7.6
2023-04-21T09:40:05.269Z,7.6
2023-04-21T09:41:12.736Z,7.6
2023-04-21T09:42:21.256Z,7
2023-04-21T09:43:29.576Z,7
2023-04-21T09:44:47.479Z,7
2023-04-21T09:45:46.529Z,7.2
2023-04-21T09:46:54.809Z,7.2
2023-04-21T09:48:03.169Z,7.2
2023-04-21T09:49:11.749Z,6.8
2023-04-21T09:50:29.156Z,6.8
2023-04-21T09:51:37.215Z,6.8
2023-04-21T09:52:36.973Z,7.4
2023-04-21T09:53:45.507Z,7.4
2023-04-21T09:54:53.657Z,7.4
2023-04-21T09:56:02.221Z,6.6
2023-04-21T09:57:10.565Z,6.6
2023-04-21T09:58:18.858Z,6.6
2023-04-21T09:59:27.440Z,5.9
2023-04-21T10:00:35.765Z,5.9
2023-04-21T10:01:44.144Z,5.9
2023-04-21T10:02:52.737Z,5.9
2023-04-21T10:04:01.189Z,5.9
2023-04-21T10:05:09.492Z,5.9
2023-04-21T10:06:17.911Z,6.6
2023-04-21T10:07:26.249Z,6.6
2023-04-21T10:08:34.583Z,6.6
2023-04-21T10:09:43.134Z,5.7
2023-04-21T10:10:51.450Z,5.7
2023-04-21T10:11:59.815Z,5.7
2023-04-21T10:13:08.357Z,6
2023-04-21T10:14:16.780Z,6
2023-04-21T10:15:25.017Z,6
2023-04-21T10:16:33.654Z,6.6
2023-04-21T10:17:41.949Z,6.6
2023-04-21T10:18:50.247Z,6.6
2023-04-21T10:19:58.787Z,6
2023-04-21T10:21:07.132Z,6
2023-04-21T10:22:15.482Z,6
2023-04-21T10:23:24.032Z,6.1
2023-04-21T10:24:32.369Z,6.1
2023-04-21T10:25:40.722Z,6.1
2023-04-21T10:26:49.283Z,5.9
2023-04-21T10:27:57.659Z,5.9
2023-04-21T10:29:05.996Z,5.9
2023-04-21T10:30:14.531Z,6.3
2023-04-21T10:31:23.037Z,6.3
2023-04-21T10:32:31.433Z,6.3
2023-04-21T10:33:40.101Z,6.4
2023-04-21T10:34:48.394Z,6.4
2023-04-21T10:35:56.717Z,6.4
2023-04-21T10:37:05.326Z,6.3
2023-04-21T10:38:13.620Z,6.3
2023-04-21T10:39:21.999Z,6.3
2023-04-21T10:40:42.320Z,5.7
2023-04-21T10:41:38.841Z,5.7
2023-04-21T10:42:47.148Z,5.7
2023-04-21T10:43:55.688Z,6.2
2023-04-21T10:45:04.017Z,6.2
2023-04-21T10:46:12.396Z,6.2
2023-04-21T10:47:20.893Z,5.9
2023-04-21T10:48:29.240Z,5.9
2023-04-21T10:49:37.632Z,5.9
2023-04-21T10:50:46.117Z,6.5
2023-04-21T10:51:54.469Z,6.5
2023-04-21T10:53:02.828Z,6.5
2023-04-21T10:54:11.377Z,5.4
2023-04-21T10:55:19.707Z,5.4
2023-04-21T10:56:28.044Z,5.4
2023-04-21T10:57:37.144Z,6
2023-04-21T10:58:45.500Z,6
2023-04-21T10:59:53.852Z,6
2023-04-21T11:01:02.401Z,6
2023-04-21T11:02:10.816Z,6
2023-04-21T11:03:19.134Z,6
2023-04-21T11:04:27.962Z,5.7
2023-04-21T11:05:35.997Z,5.7
2023-04-21T11:06:44.325Z,5.7
2023-04-21T11:07:52.935Z,5.4
2023-04-21T11:09:01.280Z,5.4
2023-04-21T11:10:09.606Z,5.4
2023-04-21T11:11:18.150Z,5.1
2023-04-21T11:12:26.476Z,5.1
2023-04-21T11:13:34.823Z,5.1
2023-04-21T11:14:43.358Z,5.6
2023-04-21T11:15:51.687Z,5.6
2023-04-21T11:17:00.153Z,5.6
2023-04-21T11:18:08.600Z,6.2
2023-04-21T11:19:16.898Z,6.2
2023-04-21T11:20:25.245Z,6.2
2023-04-21T11:21:33.822Z,4.7
2023-04-21T11:22:42.138Z,4.7
2023-04-21T11:23:50.479Z,4.7
2023-04-21T11:24:59.031Z,5.2
2023-04-21T11:26:07.354Z,5.2
2023-04-21T11:27:15.690Z,5.2
2023-04-21T11:28:24.245Z,6
2023-04-21T11:29:32.571Z,6
2023-04-21T11:30:40.954Z,6
2023-04-21T11:31:49.451Z,5.5
2023-04-21T11:32:57.863Z,5.5
2023-04-21T11:34:06.201Z,5.5
2023-04-21T11:35:14.961Z,4.4
2023-04-21T11:36:23.234Z,4.4
2023-04-21T11:37:31.591Z,4.4
2023-04-21T11:38:40.113Z,4.6
2023-04-21T11:39:48.472Z,4.6
2023-04-21T11:40:56.827Z,4.6
2023-04-21T11:42:05.383Z,4.2
2023-04-21T11:43:13.731Z,4.2
2023-04-21T11:44:22.094Z,4.2
2023-04-21T11:45:30.635Z,4.6
2023-04-21T11:46:39.032Z,4.6
2023-04-21T11:47:47.336Z,4.6
2023-04-21T11:48:55.852Z,3.9
2023-04-21T11:50:04.175Z,3.9
2023-04-21T11:51:12.504Z,3.9
2023-04-21T11:52:21.103Z,4.5
2023-04-21T11:53:29.457Z,4.5
2023-04-21T11:54:37.840Z,4.5
2023-04-21T11:55:46.370Z,4.7
2023-04-21T11:56:54.769Z,4.7
2023-04-21T11:58:03.117Z,4.7
2023-04-21T11:59:11.652Z,4.1
2023-04-21T12:00:19.993Z,4.1
2023-04-21T12:01:28.348Z,4.1
2023-04-21T12:02:37.075Z,4
2023-04-21T12:03:45.376Z,4
2023-04-21T12:04:53.677Z,4
2023-04-21T12:06:02.170Z,4.8
2023-04-21T12:07:10.477Z,4.8
2023-04-21T12:08:18.812Z,4.8
2023-04-21T12:09:27.383Z,4.5
2023-04-21T12:10:35.691Z,4.5
2023-04-21T12:11:44.044Z,4.5
2023-04-21T12:12:52.590Z,4.3
2023-04-21T12:14:00.913Z,4.3
2023-04-21T12:15:09.277Z,4.3
2023-04-21T12:16:17.855Z,4.6
2023-04-21T12:17:26.166Z,4.6
2023-04-21T12:18:36.170Z,4.6
2023-04-21T12:19:43.010Z,5
2023-04-21T12:20:51.346Z,5
2023-04-21T12:21:59.716Z,5
2023-04-21T12:23:08.256Z,4.3
2023-04-21T12:24:16.592Z,4.3
2023-04-21T12:25:24.984Z,4.3
2023-04-21T12:26:33.462Z,4.3
2023-04-21T12:27:41.821Z,4.3
2023-04-21T12:28:50.164Z,4.3
2023-04-21T12:29:58.705Z,4.5
2023-04-21T12:31:07.070Z,4.5
2023-04-21T12:32:15.372Z,4.5
2023-04-21T12:33:24.075Z,4.6
2023-04-21T12:34:32.239Z,4.6
2023-04-21T12:35:40.566Z,4.6
2023-04-21T12:36:49.145Z,4.9
2023-04-21T12:37:57.487Z,4.9
2023-04-21T12:39:05.871Z,4.9
2023-04-21T12:40:14.439Z,4.4
2023-04-21T12:41:22.842Z,4.4
2023-04-21T12:42:31.124Z,4.4
2023-04-21T12:43:39.660Z,4.3
2023-04-21T12:44:47.995Z,4.3
2023-04-21T12:45:56.355Z,4.3
2023-04-21T12:47:04.871Z,4.6
2023-04-21T12:48:13.354Z,4.6
2023-04-21T12:49:21.638Z,4.6
2023-04-21T12:50:30.177Z,4.9
2023-04-21T12:51:38.499Z,4.9
2023-04-21T12:52:46.850Z,4.9
2023-04-21T12:53:55.392Z,4.8
2023-04-21T12:55:03.741Z,4.8
2023-04-21T12:56:12.083Z,4.8
2023-04-21T12:57:20.651Z,4.4
2023-04-21T12:58:28.959Z,4.4
2023-04-21T12:59:37.290Z,4.4
2023-04-21T13:00:45.836Z,4.4
2023-04-21T13:01:54.241Z,4.4
2023-04-21T13:03:02.646Z,4.4
2023-04-21T13:04:11.381Z,4.7
2023-04-21T13:05:19.485Z,4.7
2023-04-21T13:06:27.844Z,4.7
2023-04-21T13:07:36.398Z,4.5
2023-04-21T13:08:44.772Z,4.5
2023-04-21T13:09:53.131Z,4.5
2023-04-21T13:11:01.752Z,4.9
2023-04-21T13:12:10.123Z,4.9
2023-04-21T13:13:18.488Z,4.9
2023-04-21T13:14:26.995Z,4.6
2023-04-21T13:15:35.342Z,4.6
2023-04-21T13:16:43.745Z,4.6
2023-04-21T13:17:52.278Z,5.6
2023-04-21T13:19:00.600Z,5.6
2023-04-21T13:20:08.994Z,5.6
2023-04-21T13:21:17.483Z,4.3
2023-04-21T13:22:25.885Z,4.3
2023-04-21T13:23:34.264Z,4.3
2023-04-21T13:24:42.819Z,4.5
2023-04-21T13:25:51.158Z,4.5
2023-04-21T13:26:59.533Z,4.5
2023-04-21T13:28:08.068Z,4.1
2023-04-21T13:29:16.449Z,4.1
2023-04-21T13:30:24.765Z,4.1
2023-04-21T13:31:33.426Z,4.5
2023-04-21T13:32:41.688Z,4.5
2023-04-21T13:33:51.136Z,4.5
2023-04-21T13:34:58.564Z,4
2023-04-21T13:36:06.921Z,4
2023-04-21T13:37:15.260Z,4
2023-04-21T13:38:24.157Z,4.8
2023-04-21T13:39:32.818Z,4.8
2023-04-21T13:40:40.830Z,4.8
2023-04-21T13:41:49.740Z,4.5
2023-04-21T13:42:57.713Z,4.5
2023-04-21T13:44:06.055Z,4.5
2023-04-21T13:45:14.644Z,4.8
2023-04-21T13:46:23.031Z,4.8
2023-04-21T13:47:31.326Z,4.8
2023-04-21T13:48:39.881Z,4.1
2023-04-21T13:49:48.196Z,4.1
2023-04-21T13:50:56.556Z,4.1
2023-04-21T13:52:05.106Z,3.9
2023-04-21T13:53:13.426Z,3.9
2023-04-21T13:54:21.756Z,3.9
2023-04-21T13:55:30.296Z,4.9
2023-04-21T13:56:38.672Z,4.9
2023-04-21T13:57:46.998Z,4.9
2023-04-21T13:58:55.603Z,4
2023-04-21T14:00:03.967Z,4
2023-04-21T14:01:12.370Z,4
2023-04-21T14:02:21.018Z,4.5
2023-04-21T14:03:29.274Z,4.5
2023-04-21T14:04:37.844Z,4.5
2023-04-21T14:05:46.077Z,4.5
2023-04-21T14:06:54.370Z,4.5
2023-04-21T14:08:02.692Z,4.5
2023-04-21T14:09:11.292Z,4.6
2023-04-21T14:10:19.647Z,4.6
2023-04-21T14:11:28.020Z,4.6
2023-04-21T14:12:36.578Z,4.2
2023-04-21T14:13:59.787Z,4.2
2023-04-21T14:14:53.229Z,4.2
2023-04-21T14:16:01.818Z,4.1
2023-04-21T14:17:10.159Z,4.1
2023-04-21T14:18:18.512Z,4.1
2023-04-21T14:19:27.051Z,4.6
2023-04-21T14:20:35.429Z,4.6
2023-04-21T14:21:43.763Z,4.6
2023-04-21T14:22:52.293Z,4.7
2023-04-21T14:24:00.637Z,4.7
2023-04-21T14:25:08.969Z,4.7
2023-04-21T14:26:17.524Z,4.4
2023-04-21T14:27:25.874Z,4.4
2023-04-21T14:28:34.206Z,4.4
2023-04-21T14:29:42.765Z,4.9
2023-04-21T14:30:51.418Z,4.9
2023-04-21T14:31:59.823Z,4.9
2023-04-21T14:33:08.373Z,4.4
2023-04-21T14:34:16.642Z,4.4
2023-04-21T14:35:24.976Z,4.4
2023-04-21T14:36:33.537Z,4.2
2023-04-21T14:37:41.947Z,4.2
2023-04-21T14:38:50.343Z,4.2
2023-04-21T14:39:58.842Z,4.3
2023-04-21T14:41:07.215Z,4.3
2023-04-21T14:42:15.591Z,4.3
2023-04-21T14:43:24.078Z,4.3
2023-04-21T14:44:32.385Z,4.3
2023-04-21T14:45:40.739Z,4.3
2023-04-21T14:46:57.356Z,4.5
2023-04-21T14:47:57.640Z,4.5
2023-04-21T14:49:05.959Z,4.5
2023-04-21T14:50:14.481Z,4.4
2023-04-21T14:51:22.842Z,4.4
2023-04-21T14:52:31.269Z,4.4
2023-04-21T14:53:40.157Z,4.4
2023-04-21T14:54:48.493Z,4.4
2023-04-21T14:55:56.889Z,4.4
2023-04-21T14:57:17.324Z,4.2
2023-04-21T14:58:15.038Z,4.2
2023-04-21T14:59:23.368Z,4.2
2023-04-21T15:00:32.076Z,4.4
2023-04-21T15:01:40.266Z,4.4